Dream Angel — 3EEV — position and weather

sailwx.info

Track history (hours):
 
Tides and Currents Weather Stations Pressure Air Temp Water Temp Dewpoint Dewpoint Depression Visibility Wind Speed Wind Dir Waves Ship Positions

Dream Angel

Last reported at 2014-Oct-17 10:30 UTC. Time now 2014-Oct-25 19:53 UTC.
Position N 34°01' E 130°49'.
Warning: this ship's position is 8 days out of date.

Length 187 m; draft 7.2 m.

Type: Ship. MMSI: 371820000.

Date/timePositionNaut miles runAvg speedWind from/ knotsBaromVisibWave heightAir tempDewpointWater temp
2014-Oct-17 10:30N 34°01' E 130°49'439 9.1
2014-Oct-15 10:22N 34°55' E 139°38'1315.7
2014-Oct-15 09:33N 35°07' E 139°44'1212.2
2014-Oct-15 08:33N 35°19' E 139°43'8 8.2
2014-Oct-15 07:31N 35°27' E 139°41'0 0.0
2014-Oct-15 06:31N 35°27' E 139°41'0 0.0
2014-Oct-15 05:31N 35°27' E 139°41'0 0.0
2014-Oct-15 04:31N 35°27' E 139°41'0 0.0
2014-Oct-15 03:31N 35°27' E 139°41'0 0.1
2014-Oct-15 02:33N 35°27' E 139°41'2 1.7
2014-Oct-15 01:33N 35°25' E 139°41'0 0.0
2014-Oct-15 00:33N 35°25' E 139°41'0 0.0
2014-Oct-14 23:33N 35°25' E 139°41'0 0.0
2014-Oct-14 22:33N 35°25' E 139°41'4 4.0
2014-Oct-14 21:33N 35°22' E 139°43'1211.8
2014-Oct-14 20:33N 35°11' E 139°47'8 8.4
2014-Oct-14 19:33N 35°02' E 139°44'  
2014-Oct-11 15:13N 33°51' E 134°57'1115.7
2014-Oct-11 14:30N 34°03' E 134°58'1313.3
2014-Oct-11 13:33N 34°15' E 134°58'1514.6
2014-Oct-11 12:33N 34°28' E 135°07'1414.4
2014-Oct-11 11:33N 34°32' E 135°24'1 0.7
2014-Oct-11 10:29N 34°32' E 135°24'0 0.0
2014-Oct-11 09:29N 34°32' E 135°24'0 0.0
2014-Oct-11 08:29N 34°32' E 135°24'0 0.0
2014-Oct-11 07:29N 34°32' E 135°24'0 0.0
2014-Oct-11 06:29N 34°32' E 135°24'0 0.0
2014-Oct-11 05:29N 34°32' E 135°24'2 1.9
2014-Oct-11 04:33N 34°33' E 135°22'1312.8
2014-Oct-11 03:34N 34°26' E 135°09'1515.1
2014-Oct-11 02:33N 34°14' E 134°59'9 9.4
2014-Oct-11 01:33N 34°04' E 134°59'161 5.4
2014-Oct-09 19:33N 32°39' E 132°16'1616.3
2014-Oct-09 18:33N 32°23' E 132°11'1716.8
2014-Oct-09 17:33N 32°07' E 132°06'1717.3
2014-Oct-09 16:33N 31°50' E 132°01'  
Track history (hours):
 
Tides and Currents Weather Stations Pressure Air Temp Water Temp Dewpoint Dewpoint Depression Visibility Wind Speed Wind Dir Waves Ship Positions

Dream Angel

Last reported at 2014-Oct-17 10:30 UTC. Time now 2014-Oct-25 19:53 UTC.
Position N 34°01' E 130°49'.
Warning: this ship's position is 8 days out of date.

Length 187 m; draft 7.2 m.

Type: Ship. MMSI: 371820000.

Date/timePositionNaut miles runAvg speedWind from/ knotsBaromVisibWave heightAir tempDewpointWater temp
2014-Oct-17 10:30N 34°01' E 130°49'439 9.1
2014-Oct-15 10:22N 34°55' E 139°38'1315.7
2014-Oct-15 09:33N 35°07' E 139°44'1212.2
2014-Oct-15 08:33N 35°19' E 139°43'8 8.2
2014-Oct-15 07:31N 35°27' E 139°41'0 0.0
2014-Oct-15 06:31N 35°27' E 139°41'0 0.0
2014-Oct-15 05:31N 35°27' E 139°41'0 0.0
2014-Oct-15 04:31N 35°27' E 139°41'0 0.0
2014-Oct-15 03:31N 35°27' E 139°41'0 0.1
2014-Oct-15 02:33N 35°27' E 139°41'2 1.7
2014-Oct-15 01:33N 35°25' E 139°41'0 0.0
2014-Oct-15 00:33N 35°25' E 139°41'0 0.0
2014-Oct-14 23:33N 35°25' E 139°41'0 0.0
2014-Oct-14 22:33N 35°25' E 139°41'4 4.0
2014-Oct-14 21:33N 35°22' E 139°43'1211.8
2014-Oct-14 20:33N 35°11' E 139°47'8 8.4
2014-Oct-14 19:33N 35°02' E 139°44'  
2014-Oct-11 15:13N 33°51' E 134°57'1115.7
2014-Oct-11 14:30N 34°03' E 134°58'1313.3
2014-Oct-11 13:33N 34°15' E 134°58'1514.6
2014-Oct-11 12:33N 34°28' E 135°07'1414.4
2014-Oct-11 11:33N 34°32' E 135°24'1 0.7
2014-Oct-11 10:29N 34°32' E 135°24'0 0.0
2014-Oct-11 09:29N 34°32' E 135°24'0 0.0
2014-Oct-11 08:29N 34°32' E 135°24'0 0.0
2014-Oct-11 07:29N 34°32' E 135°24'0 0.0
2014-Oct-11 06:29N 34°32' E 135°24'0 0.0
2014-Oct-11 05:29N 34°32' E 135°24'2 1.9
2014-Oct-11 04:33N 34°33' E 135°22'1312.8
2014-Oct-11 03:34N 34°26' E 135°09'1515.1
2014-Oct-11 02:33N 34°14' E 134°59'9 9.4
2014-Oct-11 01:33N 34°04' E 134°59'161 5.4
2014-Oct-09 19:33N 32°39' E 132°16'1616.3
2014-Oct-09 18:33N 32°23' E 132°11'1716.8
2014-Oct-09 17:33N 32°07' E 132°06'1717.3
2014-Oct-09 16:33N 31°50' E 132°01'  

Dump ship's entire track history